Flight Track Log - Related Links

Times and Time Zones

All times are in EDT time to prevent confusion due to time zone crossing. See the SWA1718 flight status page for this flight to view local times or setup timezone preferences in your user account.

Time Position Orientation Groundspeed Altitude Reporting Facility
EDT Latitude Longitude Course Direction KTS MPH feet Rate Location/Type
Fri 06:08:58 PM 35.4094 -101.7686 339° North 269 310 11,500  Level Albuquerque Center
Fri 06:10:00 PM 35.4897 -101.8072 339° North 299 344 13,300 2,195 Climbing Albuquerque Center
Fri 06:11:01 PM 35.5792 -101.8478 340° North 333 383 16,000 2,439 Climbing Albuquerque Center
Fri 06:12:03 PM 35.6719 -101.8919 339° North 349 402 18,300 2,226 Climbing Albuquerque Center
Fri 06:13:00 PM 35.8085 -101.9667 342° North  Level FlightAware Approximate
Fri 06:13:05 PM 35.7878 -101.9469 339° North 366 421 20,600  Level Albuquerque Center
Fri 06:14:06 PM 35.8919 -101.9958 339° North 392 451 22,500 1,951 Climbing Albuquerque Center
Fri 06:15:08 PM 35.9969 -102.0450 339° North 402 463 24,600 1,742 Climbing Albuquerque Center
Fri 06:16:10 PM 36.1039 -102.0942 340° North 407 468 26,100 1,403 Climbing Albuquerque Center
Fri 06:17:12 PM 36.2150 -102.1475 339° North 423 487 27,500 1,452 Climbing Albuquerque Center
Fri 06:18:14 PM 36.3278 -102.2011 339° North 432 497 29,100 1,463 Climbing Albuquerque Center
Fri 06:19:15 PM 36.4414 -102.2550 339° North 436 502 30,500 1,561 Climbing Albuquerque Center
Fri 06:20:17 PM 36.5769 -102.3208 339° North 436 502 32,300 1,645 Climbing Albuquerque Center
Fri 06:21:19 PM 36.6881 -102.3753 339° North 431 496 33,900 829 Climbing Albuquerque Center
Fri 06:22:20 PM 36.7967 -102.4264 339° North 422 486 34,000 49 Climbing Albuquerque Center
Fri 06:23:22 PM 36.8992 -102.4761 339° North 420 483 34,000  Level Albuquerque Center
Fri 06:24:24 PM 37.0136 -102.5322 339° North 426 490 34,000  Level Albuquerque Center
Fri 06:25:26 PM 37.1342 -102.5917 339° North 420 483 34,000  Level Albuquerque Center
Fri 06:26:27 PM 37.2378 -102.6422 339° North 418 481 34,000  Level Albuquerque Center
Fri 06:27:29 PM 37.3592 -102.7014 339° North 418 481 34,000  Level Albuquerque Center
Fri 06:28:22 PM 37.4428 -102.7431 338° Northwest 413 475 34,000  Level Denver Center
Fri 06:29:24 PM 37.5644 -102.7953 341° North 414 476 34,000  Level Denver Center
Fri 06:30:26 PM 37.6725 -102.8297 346° North 418 481 34,000  Level Denver Center
Fri 06:31:28 PM 37.7978 -102.8686 346° North 417 480 34,000  Level Denver Center
Fri 06:32:30 PM 37.9061 -102.9019 346° North 417 480 34,000  Level Denver Center
Fri 06:33:32 PM 38.0328 -102.9411 346° North 420 483 34,000  Level Denver Center
Fri 06:35:36 PM 38.2392 -103.0847 331° Northwest 419 482 34,000  Level Denver Center
Fri 06:36:38 PM 38.3272 -103.1731 322° Northwest 420 483 34,000  Level Denver Center
Fri 06:37:39 PM 38.4311 -103.2769 322° Northwest 422 486 34,000 -146 Level Denver Center
Fri 06:38:41 PM 38.5117 -103.3758 316° Northwest 421 484 33,700 -726 Descending Denver Center
Fri 06:39:43 PM 38.5858 -103.5156 304° West 419 482 32,500 -1,016 Descending Denver Center
Fri 06:40:45 PM 38.6508 -103.6278 307° West 412 474 31,600 -1,161 Descending Denver Center
Fri 06:41:47 PM 38.7328 -103.7547 310° West 414 476 30,100 -1,935 Descending Denver Center
Fri 06:42:49 PM 38.8061 -103.8658 310° West 423 487 27,600 -2,323 Descending Denver Center
Fri 06:43:51 PM 38.8944 -103.9878 313° West 420 483 25,300 -2,081 Descending Denver Center
Fri 06:44:53 PM 38.9761 -104.0664 323° Northwest 405 466 23,300 -2,129 Descending Denver Center
Fri 06:45:55 PM 39.0619 -104.1272 331° Northwest 387 445 20,900 -2,488 Descending Denver Center
Fri 06:46:56 PM 39.1397 -104.1806 332° Northwest 368 423 18,200 -2,081 Descending Denver Center
Fri 06:47:59 PM 39.2347 -104.2603 327° Northwest 326 375 16,600 -1,645 Descending Denver Center
Fri 06:49:00 PM 39.3061 -104.3342 321° Northwest 306 352 14,800 -1,610 Descending Denver Center
Fri 06:50:02 PM 39.3678 -104.4028 319° Northwest 292 336 13,300 -1,548 Descending Denver Center
Fri 06:51:04 PM 39.4281 -104.4686 320° Northwest 282 325 11,600 -1,597 Descending Denver Center
Fri 06:52:06 PM 39.4928 -104.5378 320° Northwest 281 323 10,000 -1,210 Descending Denver Center
Fri 06:53:08 PM 39.5583 -104.5644 343° North 248 285 9,100 -488 Descending Denver Center
Fri 06:54:09 PM 39.6275 -104.5928 342° North 242 278 9,000 -488 Descending Denver Center
Fri 06:55:11 PM 39.6878 -104.6178 342° North 231 266 8,100 -919 Descending Denver Center
Fri 06:56:13 PM 39.7428 -104.6394 343° North 212 244 7,100 -871 Descending Denver Center
Fri 06:57:15 PM 39.7878 -104.6433 356° North 154 177 6,300 -774 Descending Denver Center
Fri 06:58:17 PM 39.8303 -104.6417 North 154 177 5,500 -774 Descending Denver Center
Fri 07:00:00 PM 39.8500 -104.6667 North  Level FlightAware Approximate
Fri 07:07:00 PM 39.8617 -104.6732 North  Level Estimated
Fri 07:08:00 PM 39.8617 -104.6732 North  Level Estimated

Login

Don't have an account? Register now (free) for customized features, flight alerts, and more!